Bruce Mcallister — WDD5894 — position and weather

sailwx.info

Track history (hours):
 
Tides and Currents Weather Stations Pressure Air Temp Water Temp Dewpoint Dewpoint Depression Visibility Wind Speed Wind Dir Waves Ship Positions

Bruce Mcallister

Owner: McAllister Towing & Transportation Company Inc., Staten Island, NY. More information available from US FCC via Universal Licensing System and Coast Guard Vessel Documentation Center.

Last reported at 2018-Jan-21 04:28 UTC. Time now 2018-Jan-21 05:00 UTC.
Position N 40°40' W 074°08'.

Length 33 m; draft 4.9 m.

Type: Tug. MMSI: 367165430.

Date/timePositionNaut miles runAvg speedWind from/ knotsBaromVisibWave heightAir tempDewpointWater temp
2018-Jan-21 04:28N 40°40' W 074°08'0 0.0
2018-Jan-21 04:00N 40°40' W 074°08'0 0.0
2018-Jan-21 03:30N 40°40' W 074°08'3 5.0
2018-Jan-21 02:59N 40°39' W 074°11'8 5.4
2018-Jan-21 01:30N 40°31' W 074°15'2 3.7
2018-Jan-21 01:00N 40°33' W 074°15'3 6.1
2018-Jan-21 00:29N 40°36' W 074°12'3 6.9
2018-Jan-21 00:00N 40°39' W 074°10'2 4.3
2018-Jan-20 23:29N 40°40' W 074°08'0 0.0
2018-Jan-20 23:00N 40°40' W 074°08'0 0.0
2018-Jan-20 22:30N 40°40' W 074°08'0 0.0
2018-Jan-20 22:00N 40°40' W 074°08'0 0.0
2018-Jan-20 21:30N 40°40' W 074°08'0 0.0
2018-Jan-20 21:00N 40°40' W 074°08'2 3.6
2018-Jan-20 20:30N 40°39' W 074°09'1 1.3
2018-Jan-20 20:00N 40°38' W 074°10'0 0.0
2018-Jan-20 19:30N 40°38' W 074°10'0 0.0
2018-Jan-20 18:59N 40°38' W 074°10'0 0.0
2018-Jan-20 18:28N 40°38' W 074°10'1 3.1
2018-Jan-20 18:00N 40°38' W 074°12'3 6.5
2018-Jan-20 17:30N 40°35' W 074°13'0 0.1
2018-Jan-20 16:59N 40°35' W 074°13'1 1.2
2018-Jan-20 16:27N 40°36' W 074°12'2 5.4
2018-Jan-20 16:00N 40°38' W 074°12'3 5.7
2018-Jan-20 15:30N 40°39' W 074°08'3 6.3
2018-Jan-20 15:00N 40°39' W 074°04'0 0.1
2018-Jan-20 14:30N 40°39' W 074°04'4 8.1
2018-Jan-20 13:59N 40°38' W 074°10'0 0.0
2018-Jan-20 13:29N 40°38' W 074°10'1 2.9
2018-Jan-20 13:00N 40°40' W 074°09'0 0.0
2018-Jan-20 12:30N 40°40' W 074°09'2 3.8
2018-Jan-20 12:00N 40°42' W 074°08'2 3.4
2018-Jan-20 11:30N 40°40' W 074°09'1 1.7
2018-Jan-20 11:00N 40°39' W 074°09'0 0.2
2018-Jan-20 10:30N 40°39' W 074°09'1 2.0
2018-Jan-20 10:00N 40°40' W 074°09'0 0.0
2018-Jan-20 09:30N 40°40' W 074°09'0 1.0
2018-Jan-20 09:00N 40°40' W 074°09'1 2.8
2018-Jan-20 08:30N 40°38' W 074°10'0 0.0
2018-Jan-20 08:00N 40°38' W 074°10'0 0.0
2018-Jan-20 07:28N 40°38' W 074°10'0 0.0
2018-Jan-20 07:00N 40°38' W 074°10'0 0.0
2018-Jan-20 06:30N 40°38' W 074°10'0 0.0
2018-Jan-20 06:00N 40°38' W 074°10'0 0.0
2018-Jan-20 05:30N 40°38' W 074°10'0 0.0
2018-Jan-20 04:59N 40°38' W 074°10'0 0.0
2018-Jan-20 04:30N 40°38' W 074°10'1 1.4
2018-Jan-20 03:59N 40°39' W 074°09'3 5.5
2018-Jan-20 03:30N 40°39' W 074°05'0 0.0
2018-Jan-20 03:00N 40°39' W 074°05'0 0.0
2018-Jan-20 02:30N 40°39' W 074°05'0 0.0
2018-Jan-20 02:00N 40°39' W 074°05'0 0.0
2018-Jan-20 01:29N 40°39' W 074°05'0 0.0
2018-Jan-20 01:00N 40°39' W 074°05'2 4.6
2018-Jan-20 00:30N 40°39' W 074°08'2 3.8
2018-Jan-19 23:59N 40°40' W 074°08'0 0.0
2018-Jan-19 23:30N 40°40' W 074°08'0 0.0
2018-Jan-19 23:00N 40°40' W 074°08'0 0.0
2018-Jan-19 22:30N 40°40' W 074°08'1 1.0
2018-Jan-19 21:59N 40°41' W 074°09'2 4.8
2018-Jan-19 21:30N 40°39' W 074°09'3 6.8
2018-Jan-19 21:00N 40°39' W 074°05'4 7.2
2018-Jan-19 20:31N 40°36' W 074°02'2 3.7
2018-Jan-19 20:00N 40°38' W 074°03'5 9.5
2018-Jan-19 19:30N 40°39' W 074°10'0 0.1
2018-Jan-19 19:00N 40°38' W 074°10'0 0.0
2018-Jan-19 18:30N 40°38' W 074°10'0 0.0
2018-Jan-19 17:59N 40°38' W 074°10'0 0.0
2018-Jan-19 17:30N 40°38' W 074°10'0 0.0
2018-Jan-19 17:00N 40°38' W 074°10'0 0.0
2018-Jan-19 16:30N 40°38' W 074°10'0 0.6
2018-Jan-19 15:58N 40°39' W 074°10'3 6.7
2018-Jan-19 15:30N 40°36' W 074°12'1 2.0
2018-Jan-19 15:00N 40°35' W 074°13'0 0.0
2018-Jan-19 14:29N 40°35' W 074°13'0 0.9
2018-Jan-19 13:59N 40°35' W 074°12'2 5.1
2018-Jan-19 13:30N 40°38' W 074°12'2 4.7
2018-Jan-19 13:00N 40°39' W 074°09'2 3.3
2018-Jan-19 12:30N 40°39' W 074°07'0 0.0
2018-Jan-19 12:00N 40°39' W 074°07'1 2.3
2018-Jan-19 11:30N 40°39' W 074°09'1 2.7
2018-Jan-19 11:00N 40°39' W 074°10'1 2.7
2018-Jan-19 10:30N 40°38' W 074°08'1 2.9
2018-Jan-19 10:00N 40°40' W 074°08'1 1.0
2018-Jan-19 09:30N 40°40' W 074°08'0 0.0
2018-Jan-19 08:59N 40°40' W 074°08'0 0.0
2018-Jan-19 08:30N 40°40' W 074°08'0 0.0
2018-Jan-19 08:00N 40°40' W 074°08'0 0.0
2018-Jan-19 07:30N 40°40' W 074°08'0 0.0
2018-Jan-19 07:00N 40°40' W 074°08'0 0.0
2018-Jan-19 06:30N 40°40' W 074°08'0 0.0
2018-Jan-19 06:00N 40°40' W 074°08'0 0.0
2018-Jan-19 05:30N 40°40' W 074°08'0 0.0
2018-Jan-19 05:00N 40°40' W 074°08'0 0.0
2018-Jan-19 04:30N 40°40' W 074°08'0 0.0
2018-Jan-19 04:00N 40°40' W 074°08'1 2.9
2018-Jan-19 03:30N 40°39' W 074°09'1 2.7
2018-Jan-19 03:00N 40°40' W 074°08'1 3.0
2018-Jan-19 02:30N 40°42' W 074°09'0 0.1
2018-Jan-19 02:00N 40°42' W 074°09'2 4.3
2018-Jan-19 01:29N 40°40' W 074°09'1 2.9
2018-Jan-19 00:59N 40°38' W 074°10'0 0.0
2018-Jan-19 00:30N 40°38' W 074°10'0 0.0
2018-Jan-19 00:00N 40°38' W 074°10'0 0.0
2018-Jan-18 23:28N 40°38' W 074°10'0 0.0
2018-Jan-18 23:00N 40°38' W 074°10'0 0.0
2018-Jan-18 22:30N 40°38' W 074°10'0 0.0
2018-Jan-18 22:00N 40°38' W 074°10'0 0.0
2018-Jan-18 21:29N 40°38' W 074°10'0 0.0
2018-Jan-18 20:59N 40°38' W 074°10'0 0.0
2018-Jan-18 20:30N 40°38' W 074°10'0 0.0
2018-Jan-18 20:00N 40°38' W 074°10'1 2.3
2018-Jan-18 19:30N 40°39' W 074°11'4 7.1
2018-Jan-18 19:00N 40°35' W 074°12'0 0.3
2018-Jan-18 18:30N 40°35' W 074°12'0 0.0
2018-Jan-18 17:59N 40°35' W 074°12'1 1.1
2018-Jan-18 17:30N 40°36' W 074°12'0 0.0
2018-Jan-18 16:58N 40°36' W 074°12'0 0.0
2018-Jan-18 16:29N 40°36' W 074°12'0 0.0
2018-Jan-18 15:59N 40°36' W 074°12'0 0.0
2018-Jan-18 15:30N 40°36' W 074°12'0 0.0
2018-Jan-18 15:00N 40°36' W 074°12'0 0.6
2018-Jan-18 14:30N 40°36' W 074°12'0 0.6
2018-Jan-18 13:59N 40°36' W 074°12'0 0.0
2018-Jan-18 13:30N 40°36' W 074°12'0 0.0
2018-Jan-18 13:00N 40°36' W 074°12'1 1.2
2018-Jan-18 11:51N 40°37' W 074°12'2 6.8
2018-Jan-18 11:30N 40°39' W 074°10'1 1.9
2018-Jan-18 11:00N 40°39' W 074°09'2 4.6
2018-Jan-18 10:28N 40°39' W 074°06'1 3.3
2018-Jan-18 10:00N 40°40' W 074°05'2 4.2
2018-Jan-18 09:30N 40°38' W 074°03'1 2.7
2018-Jan-18 09:00N 40°40' W 074°04'1 1.8
2018-Jan-18 08:26N 40°40' W 074°05'0 0.3
2018-Jan-18 08:00N 40°40' W 074°05'0 0.0
2018-Jan-18 07:30N 40°40' W 074°05'0 0.0
2018-Jan-18 07:00N 40°40' W 074°05'0 0.0
2018-Jan-18 06:30N 40°40' W 074°05'0 0.0
2018-Jan-18 06:00N 40°40' W 074°05'0 0.0
2018-Jan-18 05:30N 40°40' W 074°05'1 2.3
2018-Jan-18 05:00N 40°39' W 074°05'2 3.1
2018-Jan-18 04:30N 40°39' W 074°07'1 1.5
2018-Jan-18 04:00N 40°39' W 074°06'4 7.3
2018-Jan-18 03:30N 40°41' W 074°02'3 6.2
2018-Jan-18 03:00N 40°42' W 073°58'0 0.1
2018-Jan-18 02:30N 40°42' W 073°58'0 0.5
2018-Jan-18 02:00N 40°42' W 073°59'5 9.8
2018-Jan-18 01:31N 40°40' W 074°04'5 9.1
2018-Jan-18 01:00N 40°38' W 074°10'0 0.0
2018-Jan-18 00:00N 40°38' W 074°10'0 0.0
2018-Jan-17 23:57N 40°38' W 074°10'  
2018-Jan-12 14:59N 40°38' W 074°10'0 0.0
2018-Jan-12 14:30N 40°38' W 074°10'1 1.6
2018-Jan-12 14:00N 40°38' W 074°09'0 0.8
2018-Jan-12 13:30N 40°39' W 074°08'3 5.5
2018-Jan-12 13:00N 40°41' W 074°08'0 0.4
2018-Jan-12 12:30N 40°41' W 074°08'0 0.1
2018-Jan-12 12:00N 40°41' W 074°08'2 3.3
2018-Jan-12 11:30N 40°40' W 074°09'1 2.8
2018-Jan-12 11:00N 40°38' W 074°10'0 0.0
2018-Jan-12 10:30N 40°38' W 074°10'0 0.0
2018-Jan-12 10:00N 40°38' W 074°10'0 0.0
2018-Jan-12 09:30N 40°38' W 074°10'0 0.0
2018-Jan-12 08:59N 40°38' W 074°10'0 0.0
2018-Jan-12 08:30N 40°38' W 074°10'0 0.0
2018-Jan-12 08:00N 40°38' W 074°10'0 0.0
2018-Jan-12 07:30N 40°38' W 074°10'0 0.0
2018-Jan-12 07:00N 40°38' W 074°10'0 0.0
2018-Jan-12 06:30N 40°38' W 074°10'0 0.0
2018-Jan-12 06:00N 40°38' W 074°10'0 0.0
2018-Jan-12 05:30N 40°38' W 074°10'0 0.0
2018-Jan-12 05:00N 40°38' W 074°10'0 0.0
2018-Jan-12 04:30N 40°38' W 074°10'0 0.0
2018-Jan-12 04:00N 40°38' W 074°10'0 0.0
2018-Jan-12 03:29N 40°38' W 074°10'0 0.0
2018-Jan-12 03:00N 40°38' W 074°10'0 0.0
2018-Jan-12 02:30N 40°38' W 074°10'0 0.0
2018-Jan-11 23:23N 40°38' W 074°10'0 0.0
2018-Jan-11 21:29N 40°38' W 074°10'0 0.0
2018-Jan-11 21:00N 40°38' W 074°10'0 0.0
2018-Jan-11 20:27N 40°38' W 074°10'0 0.0
2018-Jan-11 19:58N 40°38' W 074°10'0 0.0
2018-Jan-11 19:29N 40°38' W 074°10'0 0.0
2018-Jan-11 18:57N 40°38' W 074°10'0 0.0
2018-Jan-11 16:34N 40°38' W 074°10'2 0.5
2018-Jan-11 13:05N 40°38' W 074°12'1 9.1
2018-Jan-11 12:59N 40°39' W 074°11'2 4.1
2018-Jan-11 12:30N 40°38' W 074°09'1 1.3
2018-Jan-11 11:53N 40°39' W 074°09'1 1.4
2018-Jan-11 11:30N 40°40' W 074°09'1 2.1
2018-Jan-11 10:54N 40°39' W 074°09'3 6.6
2018-Jan-11 10:30N 40°39' W 074°05'0 0.5
2018-Jan-11 10:00N 40°39' W 074°05'3 5.1
2018-Jan-11 09:28N 40°38' W 074°09'1 1.8
2018-Jan-11 08:57N 40°38' W 074°10'0 0.0
2018-Jan-11 08:28N 40°38' W 074°10'0 0.0
2018-Jan-11 08:00N 40°38' W 074°10'0 0.0
2018-Jan-11 07:28N 40°38' W 074°10'0 0.0
2018-Jan-11 06:55N 40°38' W 074°10'  
Track history (hours):
 
Tides and Currents Weather Stations Pressure Air Temp Water Temp Dewpoint Dewpoint Depression Visibility Wind Speed Wind Dir Waves Ship Positions

Bruce Mcallister

Owner: McAllister Towing & Transportation Company Inc., Staten Island, NY. More information available from US FCC via Universal Licensing System and Coast Guard Vessel Documentation Center.

Last reported at 2018-Jan-21 04:28 UTC. Time now 2018-Jan-21 05:01 UTC.
Position N 40°40' W 074°08'.

Length 33 m; draft 4.9 m.

Type: Tug. MMSI: 367165430.

Date/timePositionNaut miles runAvg speedWind from/ knotsBaromVisibWave heightAir tempDewpointWater temp
2018-Jan-21 04:28N 40°40' W 074°08'0 0.0
2018-Jan-21 04:00N 40°40' W 074°08'0 0.0
2018-Jan-21 03:30N 40°40' W 074°08'3 5.0
2018-Jan-21 02:59N 40°39' W 074°11'8 5.4
2018-Jan-21 01:30N 40°31' W 074°15'2 3.7
2018-Jan-21 01:00N 40°33' W 074°15'3 6.1
2018-Jan-21 00:29N 40°36' W 074°12'3 6.9
2018-Jan-21 00:00N 40°39' W 074°10'2 4.3
2018-Jan-20 23:29N 40°40' W 074°08'0 0.0
2018-Jan-20 23:00N 40°40' W 074°08'0 0.0
2018-Jan-20 22:30N 40°40' W 074°08'0 0.0
2018-Jan-20 22:00N 40°40' W 074°08'0 0.0
2018-Jan-20 21:30N 40°40' W 074°08'0 0.0
2018-Jan-20 21:00N 40°40' W 074°08'2 3.6
2018-Jan-20 20:30N 40°39' W 074°09'1 1.3
2018-Jan-20 20:00N 40°38' W 074°10'0 0.0
2018-Jan-20 19:30N 40°38' W 074°10'0 0.0
2018-Jan-20 18:59N 40°38' W 074°10'0 0.0
2018-Jan-20 18:28N 40°38' W 074°10'1 3.1
2018-Jan-20 18:00N 40°38' W 074°12'3 6.5
2018-Jan-20 17:30N 40°35' W 074°13'0 0.1
2018-Jan-20 16:59N 40°35' W 074°13'1 1.2
2018-Jan-20 16:27N 40°36' W 074°12'2 5.4
2018-Jan-20 16:00N 40°38' W 074°12'3 5.7
2018-Jan-20 15:30N 40°39' W 074°08'3 6.3
2018-Jan-20 15:00N 40°39' W 074°04'0 0.1
2018-Jan-20 14:30N 40°39' W 074°04'4 8.1
2018-Jan-20 13:59N 40°38' W 074°10'0 0.0
2018-Jan-20 13:29N 40°38' W 074°10'1 2.9
2018-Jan-20 13:00N 40°40' W 074°09'0 0.0
2018-Jan-20 12:30N 40°40' W 074°09'2 3.8
2018-Jan-20 12:00N 40°42' W 074°08'2 3.4
2018-Jan-20 11:30N 40°40' W 074°09'1 1.7
2018-Jan-20 11:00N 40°39' W 074°09'0 0.2
2018-Jan-20 10:30N 40°39' W 074°09'1 2.0
2018-Jan-20 10:00N 40°40' W 074°09'0 0.0
2018-Jan-20 09:30N 40°40' W 074°09'0 1.0
2018-Jan-20 09:00N 40°40' W 074°09'1 2.8
2018-Jan-20 08:30N 40°38' W 074°10'0 0.0
2018-Jan-20 08:00N 40°38' W 074°10'0 0.0
2018-Jan-20 07:28N 40°38' W 074°10'0 0.0
2018-Jan-20 07:00N 40°38' W 074°10'0 0.0
2018-Jan-20 06:30N 40°38' W 074°10'0 0.0
2018-Jan-20 06:00N 40°38' W 074°10'0 0.0
2018-Jan-20 05:30N 40°38' W 074°10'0 0.0
2018-Jan-20 04:59N 40°38' W 074°10'0 0.0
2018-Jan-20 04:30N 40°38' W 074°10'1 1.4
2018-Jan-20 03:59N 40°39' W 074°09'3 5.5
2018-Jan-20 03:30N 40°39' W 074°05'0 0.0
2018-Jan-20 03:00N 40°39' W 074°05'0 0.0
2018-Jan-20 02:30N 40°39' W 074°05'0 0.0
2018-Jan-20 02:00N 40°39' W 074°05'0 0.0
2018-Jan-20 01:29N 40°39' W 074°05'0 0.0
2018-Jan-20 01:00N 40°39' W 074°05'2 4.6
2018-Jan-20 00:30N 40°39' W 074°08'2 3.8
2018-Jan-19 23:59N 40°40' W 074°08'0 0.0
2018-Jan-19 23:30N 40°40' W 074°08'0 0.0
2018-Jan-19 23:00N 40°40' W 074°08'0 0.0
2018-Jan-19 22:30N 40°40' W 074°08'1 1.0
2018-Jan-19 21:59N 40°41' W 074°09'2 4.8
2018-Jan-19 21:30N 40°39' W 074°09'3 6.8
2018-Jan-19 21:00N 40°39' W 074°05'4 7.2
2018-Jan-19 20:31N 40°36' W 074°02'2 3.7
2018-Jan-19 20:00N 40°38' W 074°03'5 9.5
2018-Jan-19 19:30N 40°39' W 074°10'0 0.1
2018-Jan-19 19:00N 40°38' W 074°10'0 0.0
2018-Jan-19 18:30N 40°38' W 074°10'0 0.0
2018-Jan-19 17:59N 40°38' W 074°10'0 0.0
2018-Jan-19 17:30N 40°38' W 074°10'0 0.0
2018-Jan-19 17:00N 40°38' W 074°10'0 0.0
2018-Jan-19 16:30N 40°38' W 074°10'0 0.6
2018-Jan-19 15:58N 40°39' W 074°10'3 6.7
2018-Jan-19 15:30N 40°36' W 074°12'1 2.0
2018-Jan-19 15:00N 40°35' W 074°13'0 0.0
2018-Jan-19 14:29N 40°35' W 074°13'0 0.9
2018-Jan-19 13:59N 40°35' W 074°12'2 5.1
2018-Jan-19 13:30N 40°38' W 074°12'2 4.7
2018-Jan-19 13:00N 40°39' W 074°09'2 3.3
2018-Jan-19 12:30N 40°39' W 074°07'0 0.0
2018-Jan-19 12:00N 40°39' W 074°07'1 2.3
2018-Jan-19 11:30N 40°39' W 074°09'1 2.7
2018-Jan-19 11:00N 40°39' W 074°10'1 2.7
2018-Jan-19 10:30N 40°38' W 074°08'1 2.9
2018-Jan-19 10:00N 40°40' W 074°08'1 1.0
2018-Jan-19 09:30N 40°40' W 074°08'0 0.0
2018-Jan-19 08:59N 40°40' W 074°08'0 0.0
2018-Jan-19 08:30N 40°40' W 074°08'0 0.0
2018-Jan-19 08:00N 40°40' W 074°08'0 0.0
2018-Jan-19 07:30N 40°40' W 074°08'0 0.0
2018-Jan-19 07:00N 40°40' W 074°08'0 0.0
2018-Jan-19 06:30N 40°40' W 074°08'0 0.0
2018-Jan-19 06:00N 40°40' W 074°08'0 0.0
2018-Jan-19 05:30N 40°40' W 074°08'0 0.0
2018-Jan-19 05:00N 40°40' W 074°08'0 0.0
2018-Jan-19 04:30N 40°40' W 074°08'0 0.0
2018-Jan-19 04:00N 40°40' W 074°08'1 2.9
2018-Jan-19 03:30N 40°39' W 074°09'1 2.7
2018-Jan-19 03:00N 40°40' W 074°08'1 3.0
2018-Jan-19 02:30N 40°42' W 074°09'0 0.1
2018-Jan-19 02:00N 40°42' W 074°09'2 4.3
2018-Jan-19 01:29N 40°40' W 074°09'1 2.9
2018-Jan-19 00:59N 40°38' W 074°10'0 0.0
2018-Jan-19 00:30N 40°38' W 074°10'0 0.0
2018-Jan-19 00:00N 40°38' W 074°10'0 0.0
2018-Jan-18 23:28N 40°38' W 074°10'0 0.0
2018-Jan-18 23:00N 40°38' W 074°10'0 0.0
2018-Jan-18 22:30N 40°38' W 074°10'0 0.0
2018-Jan-18 22:00N 40°38' W 074°10'0 0.0
2018-Jan-18 21:29N 40°38' W 074°10'0 0.0
2018-Jan-18 20:59N 40°38' W 074°10'0 0.0
2018-Jan-18 20:30N 40°38' W 074°10'0 0.0
2018-Jan-18 20:00N 40°38' W 074°10'1 2.3
2018-Jan-18 19:30N 40°39' W 074°11'4 7.1
2018-Jan-18 19:00N 40°35' W 074°12'0 0.3
2018-Jan-18 18:30N 40°35' W 074°12'0 0.0
2018-Jan-18 17:59N 40°35' W 074°12'1 1.1
2018-Jan-18 17:30N 40°36' W 074°12'0 0.0
2018-Jan-18 16:58N 40°36' W 074°12'0 0.0
2018-Jan-18 16:29N 40°36' W 074°12'0 0.0
2018-Jan-18 15:59N 40°36' W 074°12'0 0.0
2018-Jan-18 15:30N 40°36' W 074°12'0 0.0
2018-Jan-18 15:00N 40°36' W 074°12'0 0.6
2018-Jan-18 14:30N 40°36' W 074°12'0 0.6
2018-Jan-18 13:59N 40°36' W 074°12'0 0.0
2018-Jan-18 13:30N 40°36' W 074°12'0 0.0
2018-Jan-18 13:00N 40°36' W 074°12'1 1.2
2018-Jan-18 11:51N 40°37' W 074°12'2 6.8
2018-Jan-18 11:30N 40°39' W 074°10'1 1.9
2018-Jan-18 11:00N 40°39' W 074°09'2 4.6
2018-Jan-18 10:28N 40°39' W 074°06'1 3.3
2018-Jan-18 10:00N 40°40' W 074°05'2 4.2
2018-Jan-18 09:30N 40°38' W 074°03'1 2.7
2018-Jan-18 09:00N 40°40' W 074°04'1 1.8
2018-Jan-18 08:26N 40°40' W 074°05'0 0.3
2018-Jan-18 08:00N 40°40' W 074°05'0 0.0
2018-Jan-18 07:30N 40°40' W 074°05'0 0.0
2018-Jan-18 07:00N 40°40' W 074°05'0 0.0
2018-Jan-18 06:30N 40°40' W 074°05'0 0.0
2018-Jan-18 06:00N 40°40' W 074°05'0 0.0
2018-Jan-18 05:30N 40°40' W 074°05'1 2.3
2018-Jan-18 05:00N 40°39' W 074°05'2 3.1
2018-Jan-18 04:30N 40°39' W 074°07'1 1.5
2018-Jan-18 04:00N 40°39' W 074°06'4 7.3
2018-Jan-18 03:30N 40°41' W 074°02'3 6.2
2018-Jan-18 03:00N 40°42' W 073°58'0 0.1
2018-Jan-18 02:30N 40°42' W 073°58'0 0.5
2018-Jan-18 02:00N 40°42' W 073°59'5 9.8
2018-Jan-18 01:31N 40°40' W 074°04'5 9.1
2018-Jan-18 01:00N 40°38' W 074°10'0 0.0
2018-Jan-18 00:00N 40°38' W 074°10'0 0.0
2018-Jan-17 23:57N 40°38' W 074°10'  
2018-Jan-12 14:59N 40°38' W 074°10'0 0.0
2018-Jan-12 14:30N 40°38' W 074°10'1 1.6
2018-Jan-12 14:00N 40°38' W 074°09'0 0.8
2018-Jan-12 13:30N 40°39' W 074°08'3 5.5
2018-Jan-12 13:00N 40°41' W 074°08'0 0.4
2018-Jan-12 12:30N 40°41' W 074°08'0 0.1
2018-Jan-12 12:00N 40°41' W 074°08'2 3.3
2018-Jan-12 11:30N 40°40' W 074°09'1 2.8
2018-Jan-12 11:00N 40°38' W 074°10'0 0.0
2018-Jan-12 10:30N 40°38' W 074°10'0 0.0
2018-Jan-12 10:00N 40°38' W 074°10'0 0.0
2018-Jan-12 09:30N 40°38' W 074°10'0 0.0
2018-Jan-12 08:59N 40°38' W 074°10'0 0.0
2018-Jan-12 08:30N 40°38' W 074°10'0 0.0
2018-Jan-12 08:00N 40°38' W 074°10'0 0.0
2018-Jan-12 07:30N 40°38' W 074°10'0 0.0
2018-Jan-12 07:00N 40°38' W 074°10'0 0.0
2018-Jan-12 06:30N 40°38' W 074°10'0 0.0
2018-Jan-12 06:00N 40°38' W 074°10'0 0.0
2018-Jan-12 05:30N 40°38' W 074°10'0 0.0
2018-Jan-12 05:00N 40°38' W 074°10'0 0.0
2018-Jan-12 04:30N 40°38' W 074°10'0 0.0
2018-Jan-12 04:00N 40°38' W 074°10'0 0.0
2018-Jan-12 03:29N 40°38' W 074°10'0 0.0
2018-Jan-12 03:00N 40°38' W 074°10'0 0.0
2018-Jan-12 02:30N 40°38' W 074°10'0 0.0
2018-Jan-11 23:23N 40°38' W 074°10'0 0.0
2018-Jan-11 21:29N 40°38' W 074°10'0 0.0
2018-Jan-11 21:00N 40°38' W 074°10'0 0.0
2018-Jan-11 20:27N 40°38' W 074°10'0 0.0
2018-Jan-11 19:58N 40°38' W 074°10'0 0.0
2018-Jan-11 19:29N 40°38' W 074°10'0 0.0
2018-Jan-11 18:57N 40°38' W 074°10'0 0.0
2018-Jan-11 16:34N 40°38' W 074°10'2 0.5
2018-Jan-11 13:05N 40°38' W 074°12'1 9.1
2018-Jan-11 12:59N 40°39' W 074°11'2 4.1
2018-Jan-11 12:30N 40°38' W 074°09'1 1.3
2018-Jan-11 11:53N 40°39' W 074°09'1 1.4
2018-Jan-11 11:30N 40°40' W 074°09'1 2.1
2018-Jan-11 10:54N 40°39' W 074°09'3 6.6
2018-Jan-11 10:30N 40°39' W 074°05'0 0.5
2018-Jan-11 10:00N 40°39' W 074°05'3 5.1
2018-Jan-11 09:28N 40°38' W 074°09'1 1.8
2018-Jan-11 08:57N 40°38' W 074°10'0 0.0
2018-Jan-11 08:28N 40°38' W 074°10'0 0.0
2018-Jan-11 08:00N 40°38' W 074°10'0 0.0
2018-Jan-11 07:28N 40°38' W 074°10'0 0.0
2018-Jan-11 06:55N 40°38' W 074°10'  

Dump ship's entire track history